sensor_id;sensor_type;location;lat;lon;timestamp;P1;durP1;ratioP1;P2;durP2;ratioP2
36443;SDS011;24692;45.642;13.806;2022-12-10T00:01:45;46.83;;;27.80;;
36443;SDS011;24692;45.642;13.806;2022-12-10T00:04:12;41.00;;;26.40;;
36443;SDS011;24692;45.642;13.806;2022-12-10T00:06:39;44.00;;;27.10;;
36443;SDS011;24692;45.642;13.806;2022-12-10T00:09:07;44.63;;;27.47;;
36443;SDS011;24692;45.642;13.806;2022-12-10T00:11:40;45.23;;;27.23;;
36443;SDS011;24692;45.642;13.806;2022-12-10T00:14:06;43.47;;;28.37;;
36443;SDS011;24692;45.642;13.806;2022-12-10T00:16:32;47.43;;;28.33;;
36443;SDS011;24692;45.642;13.806;2022-12-10T00:18:59;42.03;;;27.27;;
36443;SDS011;24692;45.642;13.806;2022-12-10T00:21:27;37.07;;;24.97;;
36443;SDS011;24692;45.642;13.806;2022-12-10T00:23:54;38.30;;;25.43;;
36443;SDS011;24692;45.642;13.806;2022-12-10T00:26:22;43.63;;;28.00;;
36443;SDS011;24692;45.642;13.806;2022-12-10T00:28:52;43.40;;;27.27;;
36443;SDS011;24692;45.642;13.806;2022-12-10T00:31:23;41.67;;;25.90;;
36443;SDS011;24692;45.642;13.806;2022-12-10T00:33:52;44.10;;;26.90;;
36443;SDS011;24692;45.642;13.806;2022-12-10T00:36:21;42.20;;;26.13;;
36443;SDS011;24692;45.642;13.806;2022-12-10T00:38:50;39.93;;;26.30;;
36443;SDS011;24692;45.642;13.806;2022-12-10T00:41:17;39.73;;;25.23;;
36443;SDS011;24692;45.642;13.806;2022-12-10T00:43:43;36.77;;;22.87;;
36443;SDS011;24692;45.642;13.806;2022-12-10T00:46:09;38.10;;;24.60;;
36443;SDS011;24692;45.642;13.806;2022-12-10T00:48:36;36.27;;;25.00;;
36443;SDS011;24692;45.642;13.806;2022-12-10T00:51:08;39.37;;;25.83;;
36443;SDS011;24692;45.642;13.806;2022-12-10T00:53:39;36.27;;;24.40;;
36443;SDS011;24692;45.642;13.806;2022-12-10T00:56:06;34.03;;;22.70;;
36443;SDS011;24692;45.642;13.806;2022-12-10T00:58:34;35.20;;;24.17;;
36443;SDS011;24692;45.642;13.806;2022-12-10T01:01:08;33.00;;;22.57;;
36443;SDS011;24692;45.642;13.806;2022-12-10T01:03:46;34.13;;;22.83;;
36443;SDS011;24692;45.642;13.806;2022-12-10T01:06:18;37.23;;;24.20;;
36443;SDS011;24692;45.642;13.806;2022-12-10T01:08:46;33.87;;;23.40;;
36443;SDS011;24692;45.642;13.806;2022-12-10T01:11:13;33.83;;;22.83;;
36443;SDS011;24692;45.642;13.806;2022-12-10T01:13:40;36.77;;;24.73;;
36443;SDS011;24692;45.642;13.806;2022-12-10T01:16:07;39.73;;;25.53;;
36443;SDS011;24692;45.642;13.806;2022-12-10T01:18:35;41.53;;;26.27;;
36443;SDS011;24692;45.642;13.806;2022-12-10T01:21:04;40.90;;;24.97;;
36443;SDS011;24692;45.642;13.806;2022-12-10T01:23:36;35.60;;;23.23;;
36443;SDS011;24692;45.642;13.806;2022-12-10T01:26:04;32.00;;;21.50;;
36443;SDS011;24692;45.642;13.806;2022-12-10T01:28:33;36.07;;;22.33;;
36443;SDS011;24692;45.642;13.806;2022-12-10T01:31:04;32.40;;;20.63;;
36443;SDS011;24692;45.642;13.806;2022-12-10T01:33:32;39.93;;;23.27;;
36443;SDS011;24692;45.642;13.806;2022-12-10T01:36:02;38.53;;;23.97;;
36443;SDS011;24692;45.642;13.806;2022-12-10T01:38:30;32.10;;;21.70;;
36443;SDS011;24692;45.642;13.806;2022-12-10T01:40:56;36.03;;;23.17;;
36443;SDS011;24692;45.642;13.806;2022-12-10T01:43:21;32.77;;;21.20;;
36443;SDS011;24692;45.642;13.806;2022-12-10T01:45:47;33.87;;;21.67;;
36443;SDS011;24692;45.642;13.806;2022-12-10T01:48:13;33.67;;;22.30;;
36443;SDS011;24692;45.642;13.806;2022-12-10T01:50:38;33.20;;;22.17;;
36443;SDS011;24692;45.642;13.806;2022-12-10T01:53:04;35.80;;;21.87;;
36443;SDS011;24692;45.642;13.806;2022-12-10T01:55:42;35.53;;;23.40;;
36443;SDS011;24692;45.642;13.806;2022-12-10T01:58:11;31.97;;;22.47;;
36443;SDS011;24692;45.642;13.806;2022-12-10T02:00:38;33.00;;;21.80;;
36443;SDS011;24692;45.642;13.806;2022-12-10T02:06:35;32.53;;;20.80;;
36443;SDS011;24692;45.642;13.806;2022-12-10T02:09:17;31.00;;;20.77;;
36443;SDS011;24692;45.642;13.806;2022-12-10T02:11:51;30.50;;;19.63;;
36443;SDS011;24692;45.642;13.806;2022-12-10T02:14:59;29.33;;;19.27;;
36443;SDS011;24692;45.642;13.806;2022-12-10T02:18:09;26.57;;;17.97;;
36443;SDS011;24692;45.642;13.806;2022-12-10T02:20:40;29.77;;;19.27;;
36443;SDS011;24692;45.642;13.806;2022-12-10T02:23:10;26.53;;;18.20;;
36443;SDS011;24692;45.642;13.806;2022-12-10T02:28:39;28.53;;;18.87;;
36443;SDS011;24692;45.642;13.806;2022-12-10T02:31:06;33.93;;;19.50;;
36443;SDS011;24692;45.642;13.806;2022-12-10T02:33:36;30.57;;;19.27;;
36443;SDS011;24692;45.642;13.806;2022-12-10T02:36:04;31.20;;;18.27;;
36443;SDS011;24692;45.642;13.806;2022-12-10T02:38:32;31.53;;;20.50;;
36443;SDS011;24692;45.642;13.806;2022-12-10T02:41:02;29.80;;;19.63;;
36443;SDS011;24692;45.642;13.806;2022-12-10T02:43:30;37.57;;;22.50;;
36443;SDS011;24692;45.642;13.806;2022-12-10T02:45:57;32.40;;;21.50;;
36443;SDS011;24692;45.642;13.806;2022-12-10T02:48:25;32.70;;;20.50;;
36443;SDS011;24692;45.642;13.806;2022-12-10T02:50:51;30.83;;;20.00;;
36443;SDS011;24692;45.642;13.806;2022-12-10T02:53:17;34.27;;;21.13;;
36443;SDS011;24692;45.642;13.806;2022-12-10T02:55:55;28.30;;;18.37;;
36443;SDS011;24692;45.642;13.806;2022-12-10T02:58:28;31.20;;;19.63;;
36443;SDS011;24692;45.642;13.806;2022-12-10T03:01:14;31.03;;;18.93;;
36443;SDS011;24692;45.642;13.806;2022-12-10T03:03:58;31.63;;;21.03;;
36443;SDS011;24692;45.642;13.806;2022-12-10T03:06:38;36.10;;;21.40;;
36443;SDS011;24692;45.642;13.806;2022-12-10T03:09:12;34.03;;;21.50;;
36443;SDS011;24692;45.642;13.806;2022-12-10T03:11:50;37.80;;;23.17;;
36443;SDS011;24692;45.642;13.806;2022-12-10T03:14:24;47.73;;;23.07;;
36443;SDS011;24692;45.642;13.806;2022-12-10T03:16:57;38.20;;;22.20;;
36443;SDS011;24692;45.642;13.806;2022-12-10T03:19:35;43.07;;;23.03;;
36443;SDS011;24692;45.642;13.806;2022-12-10T03:22:04;38.93;;;22.87;;
36443;SDS011;24692;45.642;13.806;2022-12-10T03:24:32;40.47;;;23.03;;
36443;SDS011;24692;45.642;13.806;2022-12-10T03:27:00;42.03;;;24.50;;
36443;SDS011;24692;45.642;13.806;2022-12-10T03:29:32;43.50;;;24.37;;
36443;SDS011;24692;45.642;13.806;2022-12-10T03:32:01;44.20;;;23.20;;
36443;SDS011;24692;45.642;13.806;2022-12-10T03:34:27;44.90;;;23.37;;
36443;SDS011;24692;45.642;13.806;2022-12-10T03:36:53;47.60;;;24.77;;
36443;SDS011;24692;45.642;13.806;2022-12-10T03:39:20;45.67;;;24.53;;
36443;SDS011;24692;45.642;13.806;2022-12-10T03:41:46;41.30;;;23.30;;
36443;SDS011;24692;45.642;13.806;2022-12-10T03:44:12;43.17;;;23.73;;
36443;SDS011;24692;45.642;13.806;2022-12-10T03:46:37;44.00;;;24.23;;
36443;SDS011;24692;45.642;13.806;2022-12-10T03:49:03;45.77;;;24.20;;
36443;SDS011;24692;45.642;13.806;2022-12-10T03:51:29;47.37;;;26.63;;
36443;SDS011;24692;45.642;13.806;2022-12-10T03:53:55;47.83;;;27.07;;
36443;SDS011;24692;45.642;13.806;2022-12-10T03:56:21;50.80;;;28.00;;
36443;SDS011;24692;45.642;13.806;2022-12-10T03:58:47;55.33;;;28.20;;
36443;SDS011;24692;45.642;13.806;2022-12-10T04:01:13;51.93;;;26.93;;
36443;SDS011;24692;45.642;13.806;2022-12-10T04:03:40;58.57;;;27.90;;
36443;SDS011;24692;45.642;13.806;2022-12-10T04:06:10;57.90;;;28.30;;
36443;SDS011;24692;45.642;13.806;2022-12-10T04:08:38;59.17;;;29.00;;
36443;SDS011;24692;45.642;13.806;2022-12-10T04:11:04;50.80;;;27.80;;
36443;SDS011;24692;45.642;13.806;2022-12-10T04:13:33;61.80;;;28.97;;
36443;SDS011;24692;45.642;13.806;2022-12-10T04:16:18;62.10;;;28.20;;
36443;SDS011;24692;45.642;13.806;2022-12-10T04:18:54;59.03;;;27.30;;
36443;SDS011;24692;45.642;13.806;2022-12-10T04:21:22;55.50;;;26.03;;
36443;SDS011;24692;45.642;13.806;2022-12-10T04:24:11;65.73;;;26.67;;
36443;SDS011;24692;45.642;13.806;2022-12-10T04:26:56;66.17;;;26.37;;
36443;SDS011;24692;45.642;13.806;2022-12-10T04:29:27;63.37;;;25.43;;
36443;SDS011;24692;45.642;13.806;2022-12-10T04:31:55;59.83;;;24.40;;
36443;SDS011;24692;45.642;13.806;2022-12-10T04:34:22;64.77;;;25.13;;
36443;SDS011;24692;45.642;13.806;2022-12-10T04:36:48;63.40;;;25.37;;
36443;SDS011;24692;45.642;13.806;2022-12-10T04:39:14;60.13;;;24.13;;
36443;SDS011;24692;45.642;13.806;2022-12-10T04:41:41;63.47;;;26.13;;
36443;SDS011;24692;45.642;13.806;2022-12-10T04:44:08;84.27;;;28.47;;
36443;SDS011;24692;45.642;13.806;2022-12-10T04:46:34;106.63;;;29.33;;
36443;SDS011;24692;45.642;13.806;2022-12-10T04:49:00;82.27;;;28.23;;
36443;SDS011;24692;45.642;13.806;2022-12-10T04:51:26;63.37;;;26.70;;
36443;SDS011;24692;45.642;13.806;2022-12-10T04:53:52;72.40;;;27.83;;
36443;SDS011;24692;45.642;13.806;2022-12-10T04:56:18;66.40;;;26.80;;
36443;SDS011;24692;45.642;13.806;2022-12-10T04:58:43;68.53;;;26.63;;
36443;SDS011;24692;45.642;13.806;2022-12-10T05:01:10;63.73;;;25.50;;
36443;SDS011;24692;45.642;13.806;2022-12-10T05:03:37;70.00;;;25.57;;
36443;SDS011;24692;45.642;13.806;2022-12-10T05:06:03;68.00;;;25.43;;
36443;SDS011;24692;45.642;13.806;2022-12-10T05:08:31;75.13;;;26.70;;
36443;SDS011;24692;45.642;13.806;2022-12-10T05:11:00;75.10;;;27.70;;
36443;SDS011;24692;45.642;13.806;2022-12-10T05:13:27;76.70;;;28.27;;
36443;SDS011;24692;45.642;13.806;2022-12-10T05:15:54;74.20;;;26.57;;
36443;SDS011;24692;45.642;13.806;2022-12-10T05:18:19;66.57;;;26.57;;
36443;SDS011;24692;45.642;13.806;2022-12-10T05:20:45;75.80;;;27.03;;
36443;SDS011;24692;45.642;13.806;2022-12-10T05:23:14;78.07;;;27.23;;
36443;SDS011;24692;45.642;13.806;2022-12-10T05:28:48;70.00;;;24.60;;
36443;SDS011;24692;45.642;13.806;2022-12-10T05:31:17;71.70;;;25.93;;
36443;SDS011;24692;45.642;13.806;2022-12-10T05:33:47;67.63;;;26.60;;
36443;SDS011;24692;45.642;13.806;2022-12-10T05:36:14;63.87;;;24.73;;
36443;SDS011;24692;45.642;13.806;2022-12-10T05:38:41;69.57;;;26.17;;
36443;SDS011;24692;45.642;13.806;2022-12-10T05:41:15;62.93;;;23.97;;
36443;SDS011;24692;45.642;13.806;2022-12-10T05:43:48;63.73;;;25.17;;
36443;SDS011;24692;45.642;13.806;2022-12-10T05:46:24;58.53;;;24.43;;
36443;SDS011;24692;45.642;13.806;2022-12-10T05:48:54;72.50;;;25.60;;
36443;SDS011;24692;45.642;13.806;2022-12-10T05:51:22;62.10;;;25.43;;
36443;SDS011;24692;45.642;13.806;2022-12-10T05:53:50;59.03;;;24.23;;
36443;SDS011;24692;45.642;13.806;2022-12-10T05:56:18;57.70;;;23.10;;
36443;SDS011;24692;45.642;13.806;2022-12-10T05:58:47;75.43;;;25.43;;
36443;SDS011;24692;45.642;13.806;2022-12-10T06:01:18;64.37;;;24.40;;
36443;SDS011;24692;45.642;13.806;2022-12-10T06:03:45;60.13;;;24.03;;
36443;SDS011;24692;45.642;13.806;2022-12-10T06:06:11;68.90;;;25.77;;
36443;SDS011;24692;45.642;13.806;2022-12-10T06:08:37;63.07;;;25.33;;
36443;SDS011;24692;45.642;13.806;2022-12-10T06:11:12;62.57;;;24.93;;
36443;SDS011;24692;45.642;13.806;2022-12-10T06:13:37;62.63;;;24.50;;
36443;SDS011;24692;45.642;13.806;2022-12-10T06:16:07;67.67;;;26.50;;
36443;SDS011;24692;45.642;13.806;2022-12-10T06:18:34;63.30;;;25.37;;
36443;SDS011;24692;45.642;13.806;2022-12-10T06:21:08;60.63;;;24.97;;
36443;SDS011;24692;45.642;13.806;2022-12-10T06:23:44;61.80;;;24.20;;
36443;SDS011;24692;45.642;13.806;2022-12-10T06:26:11;72.37;;;25.77;;
36443;SDS011;24692;45.642;13.806;2022-12-10T06:28:43;64.17;;;25.73;;
36443;SDS011;24692;45.642;13.806;2022-12-10T06:31:10;70.73;;;26.27;;
36443;SDS011;24692;45.642;13.806;2022-12-10T06:33:36;65.17;;;25.63;;
36443;SDS011;24692;45.642;13.806;2022-12-10T06:36:03;64.07;;;25.40;;
36443;SDS011;24692;45.642;13.806;2022-12-10T06:38:30;65.60;;;25.07;;
36443;SDS011;24692;45.642;13.806;2022-12-10T06:40:56;56.43;;;23.47;;
36443;SDS011;24692;45.642;13.806;2022-12-10T06:43:21;59.60;;;23.93;;
36443;SDS011;24692;45.642;13.806;2022-12-10T06:45:47;54.97;;;22.73;;
36443;SDS011;24692;45.642;13.806;2022-12-10T06:48:13;56.47;;;22.60;;
36443;SDS011;24692;45.642;13.806;2022-12-10T06:50:38;53.70;;;23.30;;
36443;SDS011;24692;45.642;13.806;2022-12-10T06:53:04;56.23;;;23.07;;
36443;SDS011;24692;45.642;13.806;2022-12-10T06:55:29;59.03;;;23.77;;
36443;SDS011;24692;45.642;13.806;2022-12-10T06:57:55;58.50;;;23.17;;
36443;SDS011;24692;45.642;13.806;2022-12-10T07:00:21;62.03;;;23.80;;
36443;SDS011;24692;45.642;13.806;2022-12-10T07:02:47;61.33;;;25.17;;
36443;SDS011;24692;45.642;13.806;2022-12-10T07:05:13;60.50;;;23.07;;
36443;SDS011;24692;45.642;13.806;2022-12-10T07:07:39;52.87;;;22.43;;
36443;SDS011;24692;45.642;13.806;2022-12-10T07:10:05;53.90;;;23.77;;
36443;SDS011;24692;45.642;13.806;2022-12-10T07:12:31;54.20;;;22.97;;
36443;SDS011;24692;45.642;13.806;2022-12-10T07:14:56;56.73;;;22.83;;
36443;SDS011;24692;45.642;13.806;2022-12-10T07:17:22;50.03;;;23.63;;
36443;SDS011;24692;45.642;13.806;2022-12-10T07:19:48;52.87;;;22.73;;
36443;SDS011;24692;45.642;13.806;2022-12-10T07:22:13;45.47;;;20.50;;
36443;SDS011;24692;45.642;13.806;2022-12-10T07:24:39;52.70;;;22.40;;
36443;SDS011;24692;45.642;13.806;2022-12-10T07:27:05;47.87;;;21.73;;
36443;SDS011;24692;45.642;13.806;2022-12-10T07:29:31;47.73;;;22.33;;
36443;SDS011;24692;45.642;13.806;2022-12-10T07:31:57;47.63;;;21.80;;
36443;SDS011;24692;45.642;13.806;2022-12-10T07:34:23;50.37;;;22.73;;
36443;SDS011;24692;45.642;13.806;2022-12-10T07:36:48;46.90;;;21.33;;
36443;SDS011;24692;45.642;13.806;2022-12-10T07:39:14;45.97;;;21.57;;
36443;SDS011;24692;45.642;13.806;2022-12-10T07:41:51;42.73;;;20.73;;
36443;SDS011;24692;45.642;13.806;2022-12-10T07:44:22;41.73;;;20.03;;
36443;SDS011;24692;45.642;13.806;2022-12-10T07:46:50;47.10;;;21.40;;
36443;SDS011;24692;45.642;13.806;2022-12-10T07:49:16;39.93;;;20.20;;
36443;SDS011;24692;45.642;13.806;2022-12-10T07:51:46;45.50;;;20.47;;
36443;SDS011;24692;45.642;13.806;2022-12-10T07:54:13;44.40;;;20.03;;
36443;SDS011;24692;45.642;13.806;2022-12-10T07:56:40;41.13;;;19.57;;
36443;SDS011;24692;45.642;13.806;2022-12-10T07:59:06;40.97;;;20.13;;
36443;SDS011;24692;45.642;13.806;2022-12-10T08:01:31;36.60;;;17.70;;
36443;SDS011;24692;45.642;13.806;2022-12-10T08:03:57;35.73;;;17.20;;
36443;SDS011;24692;45.642;13.806;2022-12-10T08:06:23;38.10;;;18.27;;
36443;SDS011;24692;45.642;13.806;2022-12-10T08:08:51;31.50;;;16.60;;
36443;SDS011;24692;45.642;13.806;2022-12-10T08:11:17;32.23;;;16.43;;
36443;SDS011;24692;45.642;13.806;2022-12-10T08:13:45;31.87;;;16.27;;
36443;SDS011;24692;45.642;13.806;2022-12-10T08:16:11;33.63;;;16.60;;
36443;SDS011;24692;45.642;13.806;2022-12-10T08:18:38;32.97;;;16.10;;
36443;SDS011;24692;45.642;13.806;2022-12-10T08:21:05;31.20;;;16.93;;
36443;SDS011;24692;45.642;13.806;2022-12-10T08:23:31;30.93;;;16.30;;
36443;SDS011;24692;45.642;13.806;2022-12-10T08:25:57;33.87;;;16.87;;
36443;SDS011;24692;45.642;13.806;2022-12-10T08:28:22;30.40;;;15.60;;
36443;SDS011;24692;45.642;13.806;2022-12-10T08:30:48;32.17;;;16.20;;
36443;SDS011;24692;45.642;13.806;2022-12-10T08:33:14;31.73;;;15.47;;
36443;SDS011;24692;45.642;13.806;2022-12-10T08:35:40;30.27;;;15.63;;
36443;SDS011;24692;45.642;13.806;2022-12-10T08:38:06;28.37;;;16.30;;
36443;SDS011;24692;45.642;13.806;2022-12-10T08:40:31;30.10;;;15.73;;
36443;SDS011;24692;45.642;13.806;2022-12-10T08:42:57;29.40;;;15.73;;
36443;SDS011;24692;45.642;13.806;2022-12-10T08:45:22;29.53;;;15.83;;
36443;SDS011;24692;45.642;13.806;2022-12-10T08:47:48;31.70;;;17.50;;
36443;SDS011;24692;45.642;13.806;2022-12-10T08:50:14;30.83;;;17.67;;
36443;SDS011;24692;45.642;13.806;2022-12-10T08:52:39;33.03;;;18.83;;
36443;SDS011;24692;45.642;13.806;2022-12-10T08:55:05;35.07;;;19.30;;
36443;SDS011;24692;45.642;13.806;2022-12-10T08:57:31;34.03;;;17.97;;
36443;SDS011;24692;45.642;13.806;2022-12-10T08:59:57;35.33;;;19.73;;
36443;SDS011;24692;45.642;13.806;2022-12-10T09:02:23;33.63;;;18.30;;
36443;SDS011;24692;45.642;13.806;2022-12-10T09:04:49;32.37;;;18.03;;
36443;SDS011;24692;45.642;13.806;2022-12-10T09:07:15;33.90;;;18.20;;
36443;SDS011;24692;45.642;13.806;2022-12-10T09:09:41;38.73;;;19.17;;
36443;SDS011;24692;45.642;13.806;2022-12-10T09:12:06;35.27;;;18.70;;
36443;SDS011;24692;45.642;13.806;2022-12-10T09:14:32;45.23;;;24.63;;
36443;SDS011;24692;45.642;13.806;2022-12-10T09:16:58;43.87;;;20.27;;
36443;SDS011;24692;45.642;13.806;2022-12-10T09:19:27;34.37;;;17.73;;
36443;SDS011;24692;45.642;13.806;2022-12-10T09:21:53;39.90;;;21.00;;
36443;SDS011;24692;45.642;13.806;2022-12-10T09:24:18;46.27;;;24.70;;
36443;SDS011;24692;45.642;13.806;2022-12-10T09:26:44;42.47;;;22.93;;
36443;SDS011;24692;45.642;13.806;2022-12-10T09:29:10;43.80;;;23.87;;
36443;SDS011;24692;45.642;13.806;2022-12-10T09:31:35;37.47;;;22.37;;
36443;SDS011;24692;45.642;13.806;2022-12-10T09:34:01;40.93;;;24.57;;
36443;SDS011;24692;45.642;13.806;2022-12-10T09:36:27;40.43;;;23.77;;
36443;SDS011;24692;45.642;13.806;2022-12-10T09:38:52;38.63;;;24.33;;
36443;SDS011;24692;45.642;13.806;2022-12-10T09:44:32;34.40;;;20.97;;
36443;SDS011;24692;45.642;13.806;2022-12-10T09:47:12;36.43;;;22.73;;
36443;SDS011;24692;45.642;13.806;2022-12-10T09:52:42;39.30;;;24.57;;
36443;SDS011;24692;45.642;13.806;2022-12-10T09:55:15;38.80;;;24.37;;
36443;SDS011;24692;45.642;13.806;2022-12-10T09:57:45;45.20;;;26.80;;
36443;SDS011;24692;45.642;13.806;2022-12-10T10:00:29;43.00;;;26.77;;
36443;SDS011;24692;45.642;13.806;2022-12-10T10:03:03;45.37;;;26.30;;
36443;SDS011;24692;45.642;13.806;2022-12-10T10:05:31;42.20;;;25.53;;
36443;SDS011;24692;45.642;13.806;2022-12-10T10:08:04;43.63;;;25.97;;
36443;SDS011;24692;45.642;13.806;2022-12-10T10:10:38;34.97;;;23.47;;
36443;SDS011;24692;45.642;13.806;2022-12-10T10:15:52;34.33;;;24.03;;
36443;SDS011;24692;45.642;13.806;2022-12-10T10:18:23;39.93;;;24.90;;
36443;SDS011;24692;45.642;13.806;2022-12-10T10:21:07;39.40;;;24.70;;
36443;SDS011;24692;45.642;13.806;2022-12-10T10:23:48;39.63;;;24.70;;
36443;SDS011;24692;45.642;13.806;2022-12-10T10:26:14;40.40;;;25.47;;
36443;SDS011;24692;45.642;13.806;2022-12-10T10:28:40;41.80;;;25.87;;
36443;SDS011;24692;45.642;13.806;2022-12-10T10:31:20;41.30;;;26.73;;
36443;SDS011;24692;45.642;13.806;2022-12-10T10:33:54;43.13;;;27.37;;
36443;SDS011;24692;45.642;13.806;2022-12-10T10:36:26;43.43;;;26.27;;
36443;SDS011;24692;45.642;13.806;2022-12-10T10:38:54;43.30;;;26.60;;
36443;SDS011;24692;45.642;13.806;2022-12-10T10:41:20;43.57;;;26.00;;
36443;SDS011;24692;45.642;13.806;2022-12-10T10:43:46;42.00;;;25.90;;
36443;SDS011;24692;45.642;13.806;2022-12-10T10:46:17;52.47;;;30.43;;
36443;SDS011;24692;45.642;13.806;2022-12-10T10:48:46;111.03;;;48.40;;
36443;SDS011;24692;45.642;13.806;2022-12-10T10:56:07;123.93;;;56.03;;
36443;SDS011;24692;45.642;13.806;2022-12-10T11:01:49;59.23;;;30.23;;
36443;SDS011;24692;45.642;13.806;2022-12-10T11:04:18;46.27;;;27.27;;
36443;SDS011;24692;45.642;13.806;2022-12-10T11:06:55;55.43;;;32.03;;
36443;SDS011;24692;45.642;13.806;2022-12-10T11:09:26;124.00;;;72.07;;
36443;SDS011;24692;45.642;13.806;2022-12-10T11:11:58;75.63;;;43.40;;
36443;SDS011;24692;45.642;13.806;2022-12-10T11:14:44;53.33;;;31.93;;
36443;SDS011;24692;45.642;13.806;2022-12-10T11:22:51;13.03;;;7.90;;
36443;SDS011;24692;45.642;13.806;2022-12-10T11:25:31;11.67;;;6.70;;
36443;SDS011;24692;45.642;13.806;2022-12-10T11:30:54;3.97;;;3.27;;
36443;SDS011;24692;45.642;13.806;2022-12-10T11:33:34;4.30;;;3.23;;
36443;SDS011;24692;45.642;13.806;2022-12-10T11:36:14;3.00;;;2.53;;
36443;SDS011;24692;45.642;13.806;2022-12-10T11:38:50;2.67;;;2.30;;
36443;SDS011;24692;45.642;13.806;2022-12-10T11:50:01;5.10;;;2.80;;
36443;SDS011;24692;45.642;13.806;2022-12-10T11:55:30;3.27;;;2.40;;
36443;SDS011;24692;45.642;13.806;2022-12-10T12:04:40;1.90;;;1.37;;
36443;SDS011;24692;45.642;13.806;2022-12-10T12:13:10;2.73;;;1.83;;
36443;SDS011;24692;45.642;13.806;2022-12-10T12:21:02;2.07;;;1.87;;
36443;SDS011;24692;45.642;13.806;2022-12-10T12:23:45;3.00;;;2.13;;
36443;SDS011;24692;45.642;13.806;2022-12-10T12:27:02;2.10;;;1.80;;
36443;SDS011;24692;45.642;13.806;2022-12-10T12:31:39;2.63;;;1.90;;
36443;SDS011;24692;45.642;13.806;2022-12-10T12:34:22;1.97;;;1.33;;
36443;SDS011;24692;45.642;13.806;2022-12-10T12:36:53;4.27;;;2.40;;
36443;SDS011;24692;45.642;13.806;2022-12-10T12:42:03;2.77;;;1.83;;
36443;SDS011;24692;45.642;13.806;2022-12-10T12:46:58;2.63;;;2.37;;
36443;SDS011;24692;45.642;13.806;2022-12-10T12:49:35;1.83;;;1.70;;
36443;SDS011;24692;45.642;13.806;2022-12-10T12:55:02;2.63;;;1.87;;
36443;SDS011;24692;45.642;13.806;2022-12-10T13:00:13;2.27;;;1.87;;
36443;SDS011;24692;45.642;13.806;2022-12-10T13:05:13;1.63;;;1.43;;
36443;SDS011;24692;45.642;13.806;2022-12-10T13:10:46;1.30;;;1.20;;
36443;SDS011;24692;45.642;13.806;2022-12-10T13:15:52;2.23;;;1.50;;
36443;SDS011;24692;45.642;13.806;2022-12-10T13:18:20;3.03;;;1.83;;
36443;SDS011;24692;45.642;13.806;2022-12-10T13:24:04;1.73;;;1.30;;
36443;SDS011;24692;45.642;13.806;2022-12-10T13:26:40;1.50;;;1.40;;
36443;SDS011;24692;45.642;13.806;2022-12-10T13:29:26;1.77;;;1.60;;
36443;SDS011;24692;45.642;13.806;2022-12-10T13:32:02;1.60;;;1.50;;
36443;SDS011;24692;45.642;13.806;2022-12-10T13:34:30;1.60;;;1.50;;
36443;SDS011;24692;45.642;13.806;2022-12-10T13:49:57;1.40;;;1.30;;
36443;SDS011;24692;45.642;13.806;2022-12-10T14:06:19;1.77;;;1.40;;
36443;SDS011;24692;45.642;13.806;2022-12-10T14:08:54;1.70;;;1.40;;
36443;SDS011;24692;45.642;13.806;2022-12-10T14:11:22;1.60;;;1.37;;
36443;SDS011;24692;45.642;13.806;2022-12-10T14:13:53;1.40;;;1.30;;
36443;SDS011;24692;45.642;13.806;2022-12-10T14:16:22;1.33;;;1.27;;
36443;SDS011;24692;45.642;13.806;2022-12-10T14:18:55;1.60;;;1.23;;
36443;SDS011;24692;45.642;13.806;2022-12-10T14:21:24;1.40;;;1.30;;
36443;SDS011;24692;45.642;13.806;2022-12-10T14:23:51;1.40;;;1.30;;
36443;SDS011;24692;45.642;13.806;2022-12-10T14:26:19;1.47;;;1.17;;
36443;SDS011;24692;45.642;13.806;2022-12-10T14:28:47;1.20;;;1.10;;
36443;SDS011;24692;45.642;13.806;2022-12-10T14:31:16;1.50;;;1.23;;
36443;SDS011;24692;45.642;13.806;2022-12-10T14:33:45;1.40;;;1.20;;
36443;SDS011;24692;45.642;13.806;2022-12-10T14:36:16;1.10;;;1.00;;
36443;SDS011;24692;45.642;13.806;2022-12-10T14:38:47;1.30;;;1.20;;
36443;SDS011;24692;45.642;13.806;2022-12-10T14:41:15;1.50;;;1.40;;
36443;SDS011;24692;45.642;13.806;2022-12-10T14:43:45;1.40;;;1.30;;
36443;SDS011;24692;45.642;13.806;2022-12-10T14:46:12;1.80;;;1.30;;
36443;SDS011;24692;45.642;13.806;2022-12-10T14:48:49;1.83;;;1.50;;
36443;SDS011;24692;45.642;13.806;2022-12-10T14:51:17;1.60;;;1.50;;
36443;SDS011;24692;45.642;13.806;2022-12-10T14:53:45;1.90;;;1.63;;
36443;SDS011;24692;45.642;13.806;2022-12-10T14:56:34;3.07;;;1.43;;
36443;SDS011;24692;45.642;13.806;2022-12-10T15:01:40;1.93;;;1.70;;
36443;SDS011;24692;45.642;13.806;2022-12-10T15:04:14;1.80;;;1.47;;
36443;SDS011;24692;45.642;13.806;2022-12-10T15:06:42;1.10;;;1.00;;
36443;SDS011;24692;45.642;13.806;2022-12-10T15:09:16;1.40;;;1.30;;
36443;SDS011;24692;45.642;13.806;2022-12-10T15:11:45;2.23;;;1.50;;
36443;SDS011;24692;45.642;13.806;2022-12-10T15:14:18;2.37;;;1.90;;
36443;SDS011;24692;45.642;13.806;2022-12-10T15:16:45;1.50;;;1.40;;
36443;SDS011;24692;45.642;13.806;2022-12-10T15:19:19;1.53;;;1.40;;
36443;SDS011;24692;45.642;13.806;2022-12-10T15:21:45;1.27;;;1.17;;
36443;SDS011;24692;45.642;13.806;2022-12-10T15:26:47;2.17;;;1.50;;
36443;SDS011;24692;45.642;13.806;2022-12-10T15:31:53;1.40;;;1.30;;
36443;SDS011;24692;45.642;13.806;2022-12-10T15:34:28;1.60;;;1.50;;
36443;SDS011;24692;45.642;13.806;2022-12-10T15:36:55;1.90;;;1.67;;
36443;SDS011;24692;45.642;13.806;2022-12-10T15:39:28;1.60;;;1.50;;
36443;SDS011;24692;45.642;13.806;2022-12-10T15:42:16;2.17;;;1.50;;
36443;SDS011;24692;45.642;13.806;2022-12-10T15:45:11;1.40;;;1.30;;
36443;SDS011;24692;45.642;13.806;2022-12-10T15:47:40;2.40;;;1.40;;
36443;SDS011;24692;45.642;13.806;2022-12-10T15:50:05;1.77;;;1.57;;
36443;SDS011;24692;45.642;13.806;2022-12-10T15:52:31;1.80;;;1.70;;
36443;SDS011;24692;45.642;13.806;2022-12-10T15:54:57;1.97;;;1.63;;
36443;SDS011;24692;45.642;13.806;2022-12-10T15:59:58;1.40;;;1.10;;
36443;SDS011;24692;45.642;13.806;2022-12-10T16:05:15;1.80;;;1.43;;
36443;SDS011;24692;45.642;13.806;2022-12-10T16:07:44;1.13;;;1.10;;
36443;SDS011;24692;45.642;13.806;2022-12-10T16:10:12;1.57;;;1.20;;
36443;SDS011;24692;45.642;13.806;2022-12-10T16:12:40;1.30;;;1.20;;
36443;SDS011;24692;45.642;13.806;2022-12-10T16:15:06;1.90;;;1.47;;
36443;SDS011;24692;45.642;13.806;2022-12-10T16:17:36;1.10;;;1.10;;
36443;SDS011;24692;45.642;13.806;2022-12-10T16:20:13;0.80;;;0.80;;
36443;SDS011;24692;45.642;13.806;2022-12-10T16:22:48;0.93;;;0.83;;
36443;SDS011;24692;45.642;13.806;2022-12-10T16:25:14;2.30;;;1.00;;
36443;SDS011;24692;45.642;13.806;2022-12-10T16:27:40;0.70;;;0.70;;
36443;SDS011;24692;45.642;13.806;2022-12-10T16:30:50;1.13;;;0.80;;
36443;SDS011;24692;45.642;13.806;2022-12-10T16:32:58;0.57;;;0.57;;
36443;SDS011;24692;45.642;13.806;2022-12-10T16:35:25;0.80;;;0.80;;
36443;SDS011;24692;45.642;13.806;2022-12-10T16:37:51;0.80;;;0.80;;
36443;SDS011;24692;45.642;13.806;2022-12-10T16:40:19;1.03;;;0.70;;